createdAt,value
2019-03-29T00:00:01.608Z,99.20
2019-03-29T00:02:32.349Z,99.30
2019-03-29T00:05:03.083Z,99.30
2019-03-29T00:07:39.959Z,99.50
2019-03-29T00:10:06.680Z,99.30
2019-03-29T00:12:37.510Z,99.50
2019-03-29T00:15:08.428Z,99.60
2019-03-29T00:17:39.174Z,99.90
2019-03-29T00:20:10.097Z,99.90
2019-03-29T00:22:40.903Z,99.90
2019-03-29T00:25:11.644Z,99.90
2019-03-29T00:27:42.445Z,99.90
2019-03-29T00:30:13.268Z,99.90
2019-03-29T00:32:44.051Z,99.90
2019-03-29T00:35:14.767Z,99.90
2019-03-29T00:37:53.368Z,99.90
2019-03-29T00:40:17.959Z,99.90
2019-03-29T00:42:48.703Z,99.90
2019-03-29T00:45:19.427Z,99.90
2019-03-29T00:47:50.260Z,99.90
2019-03-29T00:50:20.983Z,99.90
2019-03-29T00:52:51.804Z,99.90
2019-03-29T00:55:22.589Z,99.90
2019-03-29T00:57:53.342Z,99.90
2019-03-29T01:00:24.138Z,99.90
2019-03-29T01:02:54.877Z,99.90
2019-03-29T01:05:25.596Z,99.90
2019-03-29T01:08:07.056Z,99.90
2019-03-29T01:10:28.746Z,99.90
2019-03-29T01:12:59.559Z,99.90
2019-03-29T01:15:30.295Z,99.90
2019-03-29T01:18:01.076Z,99.90
2019-03-29T01:20:31.888Z,99.90
2019-03-29T01:23:02.706Z,99.90
2019-03-29T01:25:33.436Z,99.90
2019-03-29T01:28:04.365Z,99.90
2019-03-29T01:30:35.092Z,99.90
2019-03-29T01:33:05.858Z,99.90
2019-03-29T01:35:36.592Z,99.90
2019-03-29T01:38:20.793Z,99.90
2019-03-29T01:40:39.916Z,99.90
2019-03-29T01:43:10.746Z,99.90
2019-03-29T01:45:41.463Z,99.90
2019-03-29T01:48:12.183Z,99.90
2019-03-29T01:50:42.915Z,99.90
2019-03-29T01:53:13.696Z,99.90
2019-03-29T01:55:44.443Z,99.90
2019-03-29T01:58:15.184Z,99.90
2019-03-29T02:00:45.955Z,99.90
2019-03-29T02:03:16.688Z,99.90
2019-03-29T02:05:47.522Z,99.90
2019-03-29T02:08:18.262Z,99.90
2019-03-29T02:10:49.242Z,99.90
2019-03-29T02:13:20.073Z,99.90
2019-03-29T02:15:50.988Z,99.90
2019-03-29T02:18:21.786Z,99.90
2019-03-29T02:20:52.589Z,99.90
2019-03-29T02:23:23.290Z,99.90
2019-03-29T02:25:54.137Z,99.90
2019-03-29T02:28:24.871Z,99.90
2019-03-29T02:30:55.621Z,99.90
2019-03-29T02:33:26.368Z,99.90
2019-03-29T02:35:57.180Z,99.90
2019-03-29T02:38:28.014Z,99.90
2019-03-29T02:40:58.826Z,99.90
2019-03-29T02:43:29.563Z,99.90
2019-03-29T02:46:00.283Z,99.90
2019-03-29T02:48:31.098Z,99.90
2019-03-29T02:51:01.810Z,99.90
2019-03-29T02:53:32.666Z,99.90
2019-03-29T02:56:03.390Z,99.90
2019-03-29T02:58:34.127Z,99.90
2019-03-29T03:01:04.872Z,99.90
2019-03-29T03:03:35.625Z,99.90
2019-03-29T03:06:06.342Z,99.90
2019-03-29T03:08:37.097Z,99.90
2019-03-29T03:11:07.830Z,99.90
2019-03-29T03:13:38.554Z,99.90
2019-03-29T03:16:09.313Z,99.90
2019-03-29T03:18:40.154Z,99.90
2019-03-29T03:21:10.966Z,99.90
2019-03-29T03:23:41.811Z,99.90
2019-03-29T03:26:12.881Z,99.90
2019-03-29T03:28:43.684Z,99.90
2019-03-29T03:31:14.465Z,99.90
2019-03-29T03:33:45.265Z,99.90
2019-03-29T03:36:15.971Z,99.90
2019-03-29T03:38:46.742Z,99.90
2019-03-29T03:41:17.499Z,99.90
2019-03-29T03:43:48.249Z,99.90
2019-03-29T03:46:18.965Z,99.90
2019-03-29T03:48:49.790Z,99.90
2019-03-29T03:51:20.571Z,99.90
2019-03-29T03:53:51.426Z,99.90
2019-03-29T03:56:22.625Z,99.90
2019-03-29T03:58:53.731Z,99.90
2019-03-29T04:01:24.546Z,99.90
2019-03-29T04:03:55.360Z,99.90
2019-03-29T04:06:26.084Z,99.90
2019-03-29T04:08:56.826Z,99.90
2019-03-29T04:11:27.561Z,99.90
2019-03-29T04:13:58.326Z,99.90
2019-03-29T04:16:29.024Z,99.90
2019-03-29T04:18:59.775Z,99.90
2019-03-29T04:21:30.480Z,99.90
2019-03-29T04:24:01.327Z,99.90
2019-03-29T04:26:32.108Z,99.90
2019-03-29T04:29:05.259Z,99.90
2019-03-29T04:31:35.329Z,99.90
2019-03-29T04:34:06.217Z,99.90
2019-03-29T04:36:36.974Z,99.90
2019-03-29T04:39:07.898Z,99.90
2019-03-29T04:41:38.617Z,99.90
2019-03-29T04:44:09.395Z,99.90
2019-03-29T04:46:40.134Z,99.90
2019-03-29T04:49:10.936Z,99.90
2019-03-29T04:51:41.668Z,99.90
2019-03-29T04:54:12.434Z,99.90
2019-03-29T04:56:43.252Z,99.90
2019-03-29T04:59:13.988Z,99.90
2019-03-29T05:01:44.785Z,99.90
2019-03-29T05:04:15.528Z,99.90
2019-03-29T05:06:46.316Z,99.90
2019-03-29T05:09:17.130Z,99.90
2019-03-29T05:11:47.882Z,99.90
2019-03-29T05:14:18.699Z,99.90
2019-03-29T05:16:49.524Z,99.90
2019-03-29T05:19:20.319Z,99.90
2019-03-29T05:21:51.036Z,99.90
2019-03-29T05:24:21.920Z,99.90
2019-03-29T05:26:52.645Z,99.90
2019-03-29T05:29:23.439Z,99.90
2019-03-29T05:31:54.172Z,99.90
2019-03-29T05:34:24.925Z,99.90
2019-03-29T05:36:58.323Z,99.90
2019-03-29T05:39:28.087Z,99.90
2019-03-29T05:41:58.814Z,99.90
2019-03-29T05:44:29.577Z,99.90
2019-03-29T05:47:00.287Z,99.90
2019-03-29T05:49:31.050Z,99.90
2019-03-29T05:52:01.780Z,99.90
2019-03-29T05:54:32.550Z,99.90
2019-03-29T05:57:03.250Z,99.90
2019-03-29T05:59:33.996Z,99.90
2019-03-29T06:02:04.807Z,99.90
2019-03-29T06:04:35.617Z,99.90
2019-03-29T06:07:06.351Z,99.90
2019-03-29T06:09:37.120Z,99.90
2019-03-29T06:12:07.919Z,99.90
2019-03-29T06:14:38.674Z,99.90
2019-03-29T06:17:09.501Z,99.90
2019-03-29T06:19:40.355Z,99.90
2019-03-29T06:22:11.092Z,99.90
2019-03-29T06:24:41.859Z,99.90
2019-03-29T06:27:12.640Z,99.90
2019-03-29T06:29:43.370Z,99.90
2019-03-29T06:32:14.165Z,99.90
2019-03-29T06:34:44.923Z,99.90
2019-03-29T06:37:17.388Z,99.90
2019-03-29T06:39:49.071Z,99.90
2019-03-29T06:42:19.810Z,99.90
2019-03-29T06:44:50.652Z,99.90
2019-03-29T06:47:21.837Z,99.90
2019-03-29T06:49:52.601Z,99.90
2019-03-29T06:52:23.384Z,99.90
2019-03-29T06:54:54.235Z,99.90
2019-03-29T06:57:25.035Z,99.90
2019-03-29T06:59:55.844Z,99.90
2019-03-29T07:02:26.582Z,99.90
2019-03-29T07:04:57.364Z,99.90
2019-03-29T07:07:28.079Z,99.90
2019-03-29T07:09:58.900Z,99.90
2019-03-29T07:12:29.620Z,99.90
2019-03-29T07:15:00.446Z,99.90
2019-03-29T07:17:31.264Z,99.90
2019-03-29T07:20:02.017Z,99.90
2019-03-29T07:22:34.644Z,99.90
2019-03-29T07:25:05.748Z,99.90
2019-03-29T07:27:44.639Z,99.90
2019-03-29T07:30:09.406Z,99.90
2019-03-29T07:32:40.141Z,99.90
2019-03-29T07:35:11.032Z,99.90
2019-03-29T07:37:41.766Z,99.90
2019-03-29T07:40:13.440Z,99.90
2019-03-29T07:42:44.191Z,99.90
2019-03-29T07:45:15.078Z,99.90
2019-03-29T07:47:45.781Z,99.90
2019-03-29T07:50:19.128Z,99.90
2019-03-29T07:52:49.081Z,99.90
2019-03-29T07:55:19.817Z,99.90
2019-03-29T07:57:50.643Z,99.90
2019-03-29T08:00:21.468Z,99.90
2019-03-29T08:02:52.589Z,99.90
2019-03-29T08:05:23.771Z,99.90
2019-03-29T08:07:55.205Z,99.90
2019-03-29T08:10:31.097Z,99.90
2019-03-29T08:12:59.246Z,99.90
2019-03-29T08:15:30.064Z,99.90
2019-03-29T08:18:02.165Z,99.80
2019-03-29T08:20:43.809Z,99.70
2019-03-29T08:23:05.490Z,99.40
2019-03-29T08:25:36.385Z,99.00
2019-03-29T08:28:07.137Z,98.60
2019-03-29T08:30:37.919Z,98.30
2019-03-29T08:33:08.714Z,97.70
2019-03-29T08:35:39.525Z,97.90
2019-03-29T08:38:10.340Z,97.80
2019-03-29T08:40:41.068Z,98.20
2019-03-29T08:43:11.910Z,98.10
2019-03-29T08:45:42.660Z,98.30
2019-03-29T08:48:13.371Z,98.30
2019-03-29T08:50:44.205Z,98.30
2019-03-29T08:53:15.021Z,98.50
2019-03-29T08:55:46.453Z,98.20
2019-03-29T08:58:17.288Z,98.20
2019-03-29T09:00:48.113Z,97.60
2019-03-29T09:03:18.868Z,97.20
2019-03-29T09:05:50.444Z,97.30
2019-03-29T09:08:21.308Z,96.50
2019-03-29T09:10:52.076Z,96.10
2019-03-29T09:13:22.889Z,95.70
2019-03-29T09:15:53.716Z,95.50
2019-03-29T09:18:26.099Z,95.10
2019-03-29T09:20:57.073Z,95.30
2019-03-29T09:23:30.068Z,95.00
2019-03-29T09:26:00.332Z,95.10
2019-03-29T09:28:32.867Z,95.00
2019-03-29T09:31:03.596Z,95.20
2019-03-29T09:33:34.328Z,95.00
2019-03-29T09:36:05.362Z,94.90
2019-03-29T09:38:36.173Z,95.00
2019-03-29T09:41:06.932Z,95.20
2019-03-29T09:43:37.661Z,95.60
2019-03-29T09:46:08.405Z,95.80
2019-03-29T09:48:39.127Z,95.80
2019-03-29T09:51:09.871Z,95.20
2019-03-29T09:53:41.383Z,95.10
2019-03-29T09:56:12.571Z,94.80
2019-03-29T09:58:45.028Z,94.80
2019-03-29T10:01:15.859Z,94.20
2019-03-29T10:03:46.701Z,94.00
2019-03-29T10:06:17.470Z,94.20
2019-03-29T10:08:48.284Z,94.20
2019-03-29T10:11:21.867Z,94.10
2019-03-29T10:13:51.536Z,94.00
2019-03-29T10:16:25.711Z,93.60
2019-03-29T10:18:54.934Z,93.60
2019-03-29T10:21:25.676Z,93.00
2019-03-29T10:23:56.387Z,92.60
2019-03-29T10:26:27.211Z,92.30
2019-03-29T10:28:58.011Z,92.20
2019-03-29T10:31:32.465Z,92.10
2019-03-29T10:34:01.265Z,91.60
2019-03-29T10:36:32.030Z,91.90
2019-03-29T10:39:02.858Z,91.50
2019-03-29T10:41:34.469Z,91.20
2019-03-29T10:44:06.224Z,91.00
2019-03-29T10:46:37.065Z,90.90
2019-03-29T10:49:07.905Z,90.80
2019-03-29T10:51:38.657Z,90.70
2019-03-29T10:54:09.396Z,90.40
2019-03-29T10:56:40.152Z,90.10
2019-03-29T10:59:10.949Z,88.80
2019-03-29T11:01:41.667Z,88.50
2019-03-29T11:04:12.475Z,88.60
2019-03-29T11:06:43.304Z,89.90
2019-03-29T11:09:14.120Z,89.70
2019-03-29T11:11:44.959Z,90.00
2019-03-29T11:14:15.788Z,89.80
2019-03-29T11:16:46.775Z,89.60
2019-03-29T11:19:17.483Z,88.50
2019-03-29T11:21:48.200Z,88.20
2019-03-29T11:24:19.118Z,85.10
2019-03-29T11:26:49.899Z,82.70
2019-03-29T11:29:20.722Z,79.50
2019-03-29T11:31:51.605Z,77.80
2019-03-29T11:34:22.588Z,78.00
2019-03-29T11:36:53.371Z,77.90
2019-03-29T11:39:27.447Z,78.30
2019-03-29T11:41:57.573Z,78.80
2019-03-29T11:44:30.344Z,76.30
2019-03-29T11:47:01.325Z,78.10
2019-03-29T11:49:32.052Z,76.20
2019-03-29T11:52:02.794Z,76.40
2019-03-29T11:54:33.573Z,75.70
2019-03-29T11:57:04.592Z,75.50
2019-03-29T11:59:35.449Z,75.40
2019-03-29T12:02:06.305Z,76.40
2019-03-29T12:04:37.115Z,74.50
2019-03-29T12:07:07.938Z,73.90
2019-03-29T12:09:38.769Z,73.90
2019-03-29T12:12:09.741Z,74.50
2019-03-29T12:14:40.550Z,73.90
2019-03-29T12:17:11.368Z,75.40
2019-03-29T12:19:42.296Z,75.80
2019-03-29T12:22:13.111Z,76.00
2019-03-29T12:24:43.894Z,76.80
2019-03-29T12:27:14.691Z,74.10
2019-03-29T12:29:45.556Z,73.60
2019-03-29T12:32:16.427Z,74.40
2019-03-29T12:34:47.296Z,74.50
2019-03-29T12:37:18.164Z,73.30
2019-03-29T12:39:49.018Z,73.60
2019-03-29T12:42:19.760Z,74.90
2019-03-29T12:44:50.626Z,73.20
2019-03-29T12:47:21.483Z,73.50
2019-03-29T12:49:52.298Z,74.40
2019-03-29T12:52:23.112Z,72.10
2019-03-29T12:54:53.904Z,73.00
2019-03-29T12:57:24.773Z,70.20
2019-03-29T12:59:55.607Z,69.20
2019-03-29T13:02:26.454Z,69.70
2019-03-29T13:04:57.333Z,69.00
2019-03-29T13:07:28.438Z,69.20
2019-03-29T13:09:59.227Z,69.70
2019-03-29T13:12:30.064Z,69.90
2019-03-29T13:15:00.887Z,68.80
2019-03-29T13:17:31.740Z,69.40
2019-03-29T13:20:02.533Z,69.20
2019-03-29T13:22:34.879Z,70.20
2019-03-29T13:25:07.561Z,70.80
2019-03-29T13:27:38.637Z,70.30
2019-03-29T13:30:09.906Z,70.60
2019-03-29T13:32:40.762Z,70.40
2019-03-29T13:35:11.601Z,69.70
2019-03-29T13:37:42.368Z,69.00
2019-03-29T13:40:14.289Z,67.80
2019-03-29T13:42:45.148Z,68.80
2019-03-29T13:45:16.412Z,67.90
2019-03-29T13:47:47.211Z,67.70
2019-03-29T13:50:17.962Z,65.50
2019-03-29T13:52:48.759Z,66.80
2019-03-29T13:55:19.557Z,67.60
2019-03-29T13:57:50.337Z,67.00
2019-03-29T14:00:21.166Z,67.90
2019-03-29T14:02:51.979Z,67.60
2019-03-29T14:05:22.741Z,68.20
2019-03-29T14:07:53.490Z,67.60
2019-03-29T14:10:24.328Z,67.10
2019-03-29T14:12:55.133Z,66.40
2019-03-29T14:15:25.877Z,66.20
2019-03-29T14:17:56.631Z,66.40
2019-03-29T14:20:32.503Z,65.50
2019-03-29T14:23:04.135Z,66.50
2019-03-29T14:25:34.857Z,66.40
2019-03-29T14:28:05.736Z,66.10
2019-03-29T14:30:36.516Z,65.90
2019-03-29T14:33:07.329Z,65.70
2019-03-29T14:35:38.186Z,66.50
2019-03-29T14:38:09.081Z,67.50
2019-03-29T14:40:39.801Z,68.30
2019-03-29T14:43:10.629Z,69.20
2019-03-29T14:45:41.468Z,68.60
2019-03-29T14:48:12.226Z,68.30
2019-03-29T14:50:43.045Z,66.80
2019-03-29T14:53:13.908Z,66.80
2019-03-29T14:55:44.815Z,65.30
2019-03-29T14:58:15.617Z,65.70
2019-03-29T15:00:48.601Z,67.20
2019-03-29T15:03:18.972Z,68.00
2019-03-29T15:05:49.761Z,68.10
2019-03-29T15:08:20.561Z,68.30
2019-03-29T15:10:51.391Z,68.70
2019-03-29T15:13:22.228Z,68.90
2019-03-29T15:15:53.706Z,68.10
2019-03-29T15:18:24.672Z,69.20
2019-03-29T15:20:55.445Z,69.50
2019-03-29T15:23:26.197Z,68.30
2019-03-29T15:25:57.016Z,68.40
2019-03-29T15:28:27.854Z,67.10
2019-03-29T15:30:59.059Z,66.90
2019-03-29T15:33:29.856Z,67.20
2019-03-29T15:36:00.692Z,68.30
2019-03-29T15:38:31.511Z,67.00
2019-03-29T15:41:02.440Z,68.20
2019-03-29T15:43:33.278Z,68.30
2019-03-29T15:46:04.109Z,68.60
2019-03-29T15:48:34.927Z,68.40
2019-03-29T15:51:05.761Z,69.00
2019-03-29T15:53:36.505Z,69.50
2019-03-29T15:56:07.325Z,68.70
2019-03-29T15:58:38.069Z,68.30
2019-03-29T16:01:08.794Z,69.10
2019-03-29T16:03:39.607Z,69.60
2019-03-29T16:06:10.389Z,69.30
2019-03-29T16:08:41.197Z,69.70
2019-03-29T16:11:17.140Z,68.90
2019-03-29T16:13:44.490Z,68.80
2019-03-29T16:16:15.323Z,68.70
2019-03-29T16:18:46.141Z,69.50
2019-03-29T16:21:17.020Z,69.30
2019-03-29T16:23:47.936Z,69.50
2019-03-29T16:26:18.760Z,70.30
2019-03-29T16:28:49.577Z,70.70
2019-03-29T16:31:20.332Z,70.20
2019-03-29T16:33:51.129Z,70.60
2019-03-29T16:36:21.952Z,70.60
2019-03-29T16:38:52.792Z,70.10
2019-03-29T16:41:23.628Z,70.70
2019-03-29T16:43:54.489Z,70.50
2019-03-29T16:46:25.319Z,70.90
2019-03-29T16:48:56.220Z,71.20
2019-03-29T16:51:27.042Z,72.20
2019-03-29T16:53:57.937Z,71.40
2019-03-29T16:56:28.664Z,72.60
2019-03-29T16:59:00.586Z,71.70
2019-03-29T17:01:31.456Z,72.90
2019-03-29T17:04:02.305Z,72.60
2019-03-29T17:06:33.065Z,72.00
2019-03-29T17:09:04.689Z,71.30
2019-03-29T17:11:35.491Z,71.40
2019-03-29T17:14:06.284Z,71.30
2019-03-29T17:16:37.094Z,71.90
2019-03-29T17:19:07.945Z,72.00
2019-03-29T17:21:38.722Z,73.60
2019-03-29T17:24:09.562Z,72.50
2019-03-29T17:26:40.448Z,72.80
2019-03-29T17:29:11.447Z,73.50
2019-03-29T17:31:42.287Z,73.80
2019-03-29T17:34:13.174Z,74.50
2019-03-29T17:36:44.027Z,74.30
2019-03-29T17:39:14.966Z,73.80
2019-03-29T17:41:45.986Z,74.90
2019-03-29T17:44:21.977Z,74.30
2019-03-29T17:46:52.918Z,74.90
2019-03-29T17:49:23.975Z,75.30
2019-03-29T17:51:54.911Z,75.50
2019-03-29T17:54:27.429Z,76.20
2019-03-29T17:56:58.967Z,76.50
2019-03-29T17:59:29.963Z,77.50
2019-03-29T18:02:09.259Z,75.60
2019-03-29T18:04:33.970Z,76.90
2019-03-29T18:07:05.038Z,76.10
2019-03-29T18:09:36.072Z,76.90
2019-03-29T18:12:06.929Z,77.70
2019-03-29T18:14:38.721Z,78.10
2019-03-29T18:17:09.642Z,78.40
2019-03-29T18:19:40.596Z,78.10
2019-03-29T18:22:11.469Z,78.30
2019-03-29T18:24:42.338Z,79.20
2019-03-29T18:27:13.196Z,79.30
2019-03-29T18:29:44.025Z,79.40
2019-03-29T18:32:16.191Z,79.50
2019-03-29T18:34:47.144Z,80.10
2019-03-29T18:37:18.269Z,79.20
2019-03-29T18:39:49.100Z,80.30
2019-03-29T18:42:19.927Z,79.90
2019-03-29T18:44:50.690Z,80.00
2019-03-29T18:47:21.530Z,80.80
2019-03-29T18:49:52.314Z,80.90
2019-03-29T18:52:23.220Z,80.40
2019-03-29T18:54:54.075Z,80.80
2019-03-29T18:57:24.860Z,81.20
2019-03-29T18:59:55.712Z,80.50
2019-03-29T19:02:26.667Z,81.00
2019-03-29T19:04:57.529Z,82.10
2019-03-29T19:07:31.326Z,82.40
2019-03-29T19:10:02.113Z,82.70
2019-03-29T19:12:32.939Z,81.90
2019-03-29T19:15:03.771Z,82.10
2019-03-29T19:17:34.636Z,82.50
2019-03-29T19:20:10.111Z,83.70
2019-03-29T19:22:38.359Z,83.60
2019-03-29T19:25:09.273Z,83.30
2019-03-29T19:27:40.046Z,83.70
2019-03-29T19:30:11.688Z,84.10
2019-03-29T19:32:42.561Z,84.60
2019-03-29T19:35:13.420Z,84.50
2019-03-29T19:37:44.303Z,85.10
2019-03-29T19:40:15.112Z,85.60
2019-03-29T19:42:45.887Z,86.00
2019-03-29T19:45:17.837Z,86.40
2019-03-29T19:47:48.617Z,86.70
2019-03-29T19:50:19.631Z,87.20
2019-03-29T19:52:50.525Z,87.50
2019-03-29T19:55:21.431Z,87.60
2019-03-29T19:57:52.369Z,88.10
2019-03-29T20:00:35.616Z,88.60
2019-03-29T20:03:06.589Z,88.90
2019-03-29T20:05:37.429Z,89.30
2019-03-29T20:08:08.663Z,89.70
2019-03-29T20:10:39.652Z,90.00
2019-03-29T20:13:10.558Z,90.00
2019-03-29T20:15:41.479Z,90.20
2019-03-29T20:18:12.358Z,90.40
2019-03-29T20:20:43.237Z,90.60
2019-03-29T20:23:14.117Z,90.40
2019-03-29T20:25:45.006Z,90.60
2019-03-29T20:28:15.908Z,90.80
2019-03-29T20:30:46.698Z,90.90
2019-03-29T20:33:17.552Z,91.00
2019-03-29T20:35:48.431Z,91.10
2019-03-29T20:38:19.253Z,91.00
2019-03-29T20:40:50.138Z,91.10
2019-03-29T20:43:20.996Z,91.00
2019-03-29T20:45:51.895Z,91.00
2019-03-29T20:48:22.734Z,91.20
2019-03-29T20:50:53.602Z,91.30
2019-03-29T20:53:24.473Z,91.40
2019-03-29T20:55:58.223Z,91.40
2019-03-29T20:58:27.873Z,91.30
2019-03-29T21:00:58.793Z,91.20
2019-03-29T21:03:29.656Z,91.60
2019-03-29T21:06:00.465Z,91.60
2019-03-29T21:08:31.320Z,91.60
2019-03-29T21:11:02.224Z,91.70
2019-03-29T21:13:33.144Z,91.70
2019-03-29T21:16:04.083Z,91.80
2019-03-29T21:18:35.047Z,91.90
2019-03-29T21:21:05.884Z,91.90
2019-03-29T21:23:36.724Z,92.00
2019-03-29T21:26:07.585Z,92.00
2019-03-29T21:28:38.353Z,92.20
2019-03-29T21:31:09.215Z,92.40
2019-03-29T21:33:40.839Z,92.60
2019-03-29T21:36:11.953Z,92.80
2019-03-29T21:38:42.681Z,92.50
2019-03-29T21:41:13.526Z,92.50
2019-03-29T21:43:44.364Z,92.60
2019-03-29T21:46:15.181Z,93.00
2019-03-29T21:48:46.174Z,92.70
2019-03-29T21:51:16.960Z,93.00
2019-03-29T21:53:47.776Z,92.90
2019-03-29T21:56:18.626Z,92.60
2019-03-29T21:58:49.469Z,92.50
2019-03-29T22:01:20.308Z,92.60
2019-03-29T22:03:51.079Z,92.70
2019-03-29T22:06:21.925Z,92.80
2019-03-29T22:08:52.778Z,92.50
2019-03-29T22:11:23.564Z,92.70
2019-03-29T22:13:54.431Z,92.70
2019-03-29T22:16:25.265Z,92.50
2019-03-29T22:18:56.137Z,92.70
2019-03-29T22:21:27.041Z,93.00
2019-03-29T22:23:57.944Z,93.10
2019-03-29T22:26:28.769Z,93.20
2019-03-29T22:28:59.653Z,93.00
2019-03-29T22:31:30.522Z,93.20
2019-03-29T22:34:01.299Z,93.40
2019-03-29T22:36:32.134Z,93.40
2019-03-29T22:39:03.732Z,93.30
2019-03-29T22:41:34.481Z,93.40
2019-03-29T22:44:05.456Z,93.40
2019-03-29T22:46:36.355Z,93.40
2019-03-29T22:49:07.206Z,93.40
2019-03-29T22:51:38.082Z,93.10
2019-03-29T22:54:08.992Z,92.90
2019-03-29T22:56:39.713Z,92.70
2019-03-29T22:59:10.590Z,92.70
2019-03-29T23:01:43.756Z,92.60
2019-03-29T23:04:14.622Z,92.40
2019-03-29T23:06:45.390Z,92.60
2019-03-29T23:09:16.419Z,92.70
2019-03-29T23:11:47.562Z,93.00
2019-03-29T23:14:18.445Z,93.30
2019-03-29T23:16:49.206Z,93.40
2019-03-29T23:19:20.042Z,93.50
2019-03-29T23:21:50.819Z,93.50
2019-03-29T23:24:21.652Z,93.60
2019-03-29T23:26:52.448Z,93.60
2019-03-29T23:29:23.230Z,93.60
2019-03-29T23:31:54.076Z,93.80
2019-03-29T23:34:24.946Z,93.70
2019-03-29T23:36:55.703Z,93.80
2019-03-29T23:39:26.526Z,94.00
2019-03-29T23:41:57.369Z,93.90
2019-03-29T23:44:29.665Z,93.70
2019-03-29T23:47:00.396Z,93.70
2019-03-29T23:49:31.236Z,93.60
2019-03-29T23:52:02.000Z,93.60
2019-03-29T23:54:32.784Z,93.70
2019-03-29T23:57:03.515Z,93.70
2019-03-29T23:59:34.353Z,94.10
